createdAt,value
2022-11-27T00:01:14.221Z,99276.25
2022-11-27T00:03:43.825Z,99270.13
2022-11-27T00:06:17.874Z,99266.69
2022-11-27T00:08:47.645Z,99263.41
2022-11-27T00:11:19.925Z,99263.25
2022-11-27T00:13:50.083Z,99255.47
2022-11-27T00:16:20.551Z,99259.84
2022-11-27T00:18:50.283Z,99256.44
2022-11-27T00:21:24.104Z,99255.19
2022-11-27T00:23:55.650Z,99260.53
2022-11-27T00:26:25.689Z,99259.03
2022-11-27T00:28:55.148Z,99246.16
2022-11-27T00:31:28.737Z,99244.25
2022-11-27T00:34:00.621Z,99245.34
2022-11-27T00:36:33.380Z,99243.72
2022-11-27T00:39:02.926Z,99247.25
2022-11-27T00:41:32.589Z,99251.50
2022-11-27T00:44:01.093Z,99250.13
2022-11-27T00:46:32.676Z,99245.03
2022-11-27T00:49:04.018Z,99246.81
2022-11-27T00:51:35.099Z,99253.50
2022-11-27T00:54:04.590Z,99250.22
2022-11-27T00:56:37.916Z,99258.38
2022-11-27T00:59:08.970Z,99258.66
2022-11-27T01:01:42.187Z,99250.19
2022-11-27T01:04:16.705Z,99247.69
2022-11-27T01:06:47.096Z,99246.75
2022-11-27T01:09:17.278Z,99251.50
2022-11-27T01:11:46.719Z,99247.03
2022-11-27T01:14:19.112Z,99248.78
2022-11-27T01:16:48.283Z,99241.56
2022-11-27T01:19:17.255Z,99238.97
2022-11-27T01:21:48.604Z,99241.56
2022-11-27T01:24:18.743Z,99243.44
2022-11-27T01:26:48.313Z,99239.91
2022-11-27T01:29:16.955Z,99229.41
2022-11-27T01:31:46.129Z,99238.13
2022-11-27T01:34:17.882Z,99226.09
2022-11-27T01:36:48.833Z,99236.47
2022-11-27T01:39:20.177Z,99245.00
2022-11-27T01:41:50.731Z,99228.56
2022-11-27T01:44:51.042Z,99240.84
2022-11-27T01:47:44.862Z,99235.09
2022-11-27T01:50:26.160Z,99235.09
2022-11-27T01:53:04.310Z,99228.28
2022-11-27T01:55:39.189Z,99232.91
2022-11-27T01:58:13.223Z,99228.66
2022-11-27T02:00:42.720Z,99232.19
2022-11-27T02:03:12.889Z,99228.78
2022-11-27T02:05:42.562Z,99221.97
2022-11-27T02:08:17.958Z,99217.81
2022-11-27T02:10:54.271Z,99213.47
2022-11-27T02:13:33.887Z,99196.25
2022-11-27T02:16:18.251Z,99200.63
2022-11-27T02:18:58.346Z,99205.00
2022-11-27T02:21:38.520Z,99193.22
2022-11-27T02:24:44.632Z,99200.88
2022-11-27T02:27:51.687Z,99201.13
2022-11-27T02:30:23.824Z,99206.88
2022-11-27T02:33:00.773Z,99190.50
2022-11-27T02:35:38.963Z,99188.59
2022-11-27T02:38:15.168Z,99180.91
2022-11-27T02:40:56.056Z,99178.59
2022-11-27T02:43:33.262Z,99187.72
2022-11-27T02:46:08.031Z,99176.66
2022-11-27T02:48:44.707Z,99179.25
2022-11-27T02:51:25.347Z,99162.59
2022-11-27T02:54:00.047Z,99161.50
2022-11-27T02:56:32.794Z,99160.41
2022-11-27T02:59:06.391Z,99162.19
2022-11-27T03:01:43.563Z,99158.78
2022-11-27T03:04:20.818Z,99160.28
2022-11-27T03:06:57.680Z,99154.28
2022-11-27T03:09:34.859Z,99144.97
2022-11-27T03:12:08.868Z,99139.06
2022-11-27T03:14:43.375Z,99134.97
2022-11-27T03:17:36.785Z,99125.97
2022-11-27T03:20:15.526Z,99128.44
2022-11-27T03:22:45.776Z,99131.72
2022-11-27T03:25:16.243Z,99124.78
2022-11-27T03:27:51.266Z,99128.19
2022-11-27T03:30:20.993Z,99114.22
2022-11-27T03:32:52.185Z,99118.47
2022-11-27T03:35:25.854Z,99117.81
2022-11-27T03:37:55.884Z,99117.09
2022-11-27T03:40:34.179Z,99116.28
2022-11-27T03:43:12.759Z,99121.63
2022-11-27T03:45:58.436Z,99114.50
2022-11-27T03:48:39.498Z,99124.63
2022-11-27T03:51:22.525Z,99112.63
2022-11-27T03:54:01.446Z,99114.22
2022-11-27T03:56:41.263Z,99114.22
2022-11-27T03:59:18.015Z,99114.22
2022-11-27T04:01:48.235Z,99107.41
2022-11-27T04:04:19.068Z,99094.56
2022-11-27T04:06:48.327Z,99086.09
2022-11-27T04:09:18.404Z,99098.09
2022-11-27T04:11:48.090Z,99090.47
2022-11-27T04:14:18.324Z,99083.63
2022-11-27T04:16:48.380Z,99089.63
2022-11-27T04:19:20.008Z,99094.38
2022-11-27T04:21:50.221Z,99103.97
2022-11-27T04:24:19.655Z,99098.78
2022-11-27T04:26:50.092Z,99099.72
2022-11-27T04:29:19.507Z,99089.47
2022-11-27T04:31:50.109Z,99092.06
2022-11-27T04:34:21.556Z,99096.97
2022-11-27T04:36:52.071Z,99100.28
2022-11-27T04:39:22.129Z,99103.84
2022-11-27T04:41:51.587Z,99108.19
2022-11-27T04:44:22.853Z,99109.84
2022-11-27T04:46:52.058Z,99109.84
2022-11-27T04:49:22.842Z,99101.22
2022-11-27T04:51:52.804Z,99096.97
2022-11-27T04:54:22.434Z,99097.81
2022-11-27T04:56:51.925Z,99095.38
2022-11-27T04:59:21.055Z,99104.91
2022-11-27T05:01:50.029Z,99097.13
2022-11-27T05:04:18.889Z,99092.06
2022-11-27T05:06:48.809Z,99084.44
2022-11-27T05:09:18.885Z,99075.66
2022-11-27T05:11:47.755Z,99069.13
2022-11-27T05:14:18.443Z,99069.78
2022-11-27T05:16:49.664Z,99074.03
2022-11-27T05:19:21.263Z,99076.75
2022-11-27T05:21:53.295Z,99076.75
2022-11-27T05:24:24.614Z,99068.16
2022-11-27T05:26:54.038Z,99063.94
2022-11-27T05:29:24.028Z,99060.88
2022-11-27T05:31:54.067Z,99056.22
2022-11-27T05:34:23.319Z,99059.47
2022-11-27T05:36:55.046Z,99053.34
2022-11-27T05:39:24.583Z,99049.09
2022-11-27T05:41:54.114Z,99050.75
2022-11-27T05:44:23.101Z,99054.03
2022-11-27T05:46:52.258Z,99056.63
2022-11-27T05:49:21.271Z,99043.78
2022-11-27T05:51:51.761Z,99041.19
2022-11-27T05:54:22.858Z,99053.34
2022-11-27T05:56:51.825Z,99040.09
2022-11-27T05:59:20.945Z,99028.50
2022-11-27T06:01:50.750Z,99033.53
2022-11-27T06:04:21.060Z,99030.25
2022-11-27T06:06:50.015Z,99028.59
2022-11-27T06:09:19.945Z,99031.31
2022-11-27T06:11:49.813Z,99024.34
2022-11-27T06:14:19.842Z,99014.97
2022-11-27T06:16:48.658Z,99015.75
2022-11-27T06:19:18.900Z,99009.78
2022-11-27T06:21:48.448Z,99004.69
2022-11-27T06:24:18.220Z,98998.56
2022-11-27T06:26:46.739Z,99005.53
2022-11-27T06:29:16.967Z,99003.59
2022-11-27T06:31:46.910Z,99007.84
2022-11-27T06:34:17.665Z,99011.38
2022-11-27T06:36:47.646Z,99014.13
2022-11-27T06:39:17.631Z,99014.25
2022-11-27T06:41:46.674Z,99010.81
2022-11-27T06:44:17.897Z,99002.38
2022-11-27T06:46:46.946Z,98999.91
2022-11-27T06:49:16.427Z,99001.69
2022-11-27T06:51:45.457Z,99016.28
2022-11-27T06:54:14.942Z,99024.91
2022-11-27T06:56:43.828Z,99025.00
2022-11-27T06:59:15.514Z,99011.06
2022-11-27T07:01:47.369Z,99000.97
2022-11-27T07:04:17.871Z,98995.34
2022-11-27T07:06:46.284Z,98999.97
2022-11-27T07:09:16.133Z,98999.59
2022-11-27T07:11:45.055Z,98996.47
2022-11-27T07:14:14.217Z,99000.31
2022-11-27T07:16:45.930Z,99000.16
2022-11-27T07:19:15.930Z,98980.22
2022-11-27T07:21:45.763Z,98972.19
2022-11-27T07:24:16.347Z,98972.06
2022-11-27T07:26:46.726Z,98964.28
2022-11-27T07:29:16.832Z,98961.41
2022-11-27T07:31:51.805Z,98968.94
2022-11-27T07:34:22.282Z,98962.34
2022-11-27T07:36:52.794Z,98966.88
2022-11-27T07:39:39.421Z,98974.38
2022-11-27T07:42:37.031Z,98975.06
2022-11-27T07:45:02.141Z,98965.50
2022-11-27T07:47:33.905Z,98965.38
2022-11-27T07:50:03.439Z,98969.88
2022-11-27T07:52:36.707Z,98964.00
2022-11-27T07:55:11.338Z,98960.31
2022-11-27T07:57:42.401Z,98965.22
2022-11-27T08:00:13.189Z,98967.72
2022-11-27T08:02:44.524Z,98962.38
2022-11-27T08:05:15.839Z,98957.06
2022-11-27T08:07:44.735Z,98952.56
2022-11-27T08:10:13.972Z,98954.22
2022-11-27T08:12:43.858Z,98952.31
2022-11-27T08:15:13.838Z,98949.72
2022-11-27T08:17:44.796Z,98946.16
2022-11-27T08:20:14.515Z,98939.06
2022-11-27T08:22:43.699Z,98937.16
2022-11-27T08:25:12.955Z,98943.03
2022-11-27T08:27:41.645Z,98939.47
2022-11-27T08:30:12.060Z,98933.34
2022-11-27T08:32:47.332Z,98930.47
2022-11-27T08:35:16.711Z,98923.34
2022-11-27T08:37:46.650Z,98923.63
2022-11-27T08:40:16.006Z,98912.28
2022-11-27T08:42:46.276Z,98898.34
2022-11-27T08:45:17.071Z,98886.59
2022-11-27T08:47:48.558Z,98882.09
2022-11-27T08:50:19.250Z,98880.19
2022-11-27T08:52:48.963Z,98875.66
2022-11-27T08:55:20.197Z,98891.38
2022-11-27T08:57:51.007Z,98885.25
2022-11-27T09:00:27.536Z,98889.31
2022-11-27T09:03:00.121Z,98883.84
2022-11-27T09:05:30.724Z,98885.34
2022-11-27T09:08:02.625Z,98891.09
2022-11-27T09:10:33.506Z,98891.38
2022-11-27T09:13:03.777Z,98891.25
2022-11-27T09:15:35.075Z,98893.56
2022-11-27T09:18:05.529Z,98904.63
2022-11-27T09:20:35.176Z,98909.53
2022-11-27T09:23:04.698Z,98897.22
2022-11-27T09:25:34.207Z,98892.72
2022-11-27T09:28:04.949Z,98883.03
2022-11-27T09:30:33.395Z,98890.66
2022-11-27T09:33:04.390Z,98890.81
2022-11-27T09:35:33.345Z,98905.41
2022-11-27T09:38:02.801Z,98920.88
2022-11-27T09:40:31.962Z,98914.84
2022-11-27T09:43:09.745Z,98905.13
2022-11-27T09:45:52.355Z,98893.38
2022-11-27T09:48:30.007Z,98875.84
2022-11-27T09:51:00.092Z,98869.59
2022-11-27T09:53:41.228Z,98852.88
2022-11-27T09:56:17.752Z,98852.59
2022-11-27T09:58:56.699Z,98849.84
2022-11-27T10:01:36.628Z,98849.72
2022-11-27T10:04:15.993Z,98843.69
2022-11-27T10:07:14.149Z,98840.16
2022-11-27T10:10:22.888Z,98840.16
2022-11-27T10:13:07.067Z,98838.75
2022-11-27T10:15:45.232Z,98824.94
2022-11-27T10:18:28.968Z,98827.41
2022-11-27T10:21:10.317Z,98826.97
2022-11-27T10:23:52.357Z,98826.69
2022-11-27T10:26:31.063Z,98824.75
2022-11-27T10:29:11.815Z,98812.44
2022-11-27T10:31:49.892Z,98794.78
2022-11-27T10:34:35.862Z,98790.13
2022-11-27T10:37:17.314Z,98787.22
2022-11-27T10:39:54.824Z,98777.19
2022-11-27T10:42:33.479Z,98768.81
2022-11-27T10:45:07.129Z,98773.84
2022-11-27T10:47:37.300Z,98783.97
2022-11-27T10:50:15.364Z,98770.66
2022-11-27T10:52:56.547Z,98781.47
2022-11-27T10:55:43.039Z,98767.78
2022-11-27T10:58:25.563Z,98770.75
2022-11-27T11:01:03.773Z,98764.97
2022-11-27T11:03:32.740Z,98763.19
2022-11-27T11:06:20.465Z,98766.31
2022-11-27T11:09:05.426Z,98765.47
2022-11-27T11:11:35.280Z,98767.13
2022-11-27T11:14:04.138Z,98756.13
2022-11-27T11:16:43.403Z,98767.34
2022-11-27T11:19:25.168Z,98761.03
2022-11-27T11:21:54.885Z,98744.00
2022-11-27T11:24:32.141Z,98742.88
2022-11-27T11:27:08.199Z,98732.19
2022-11-27T11:29:44.126Z,98726.53
2022-11-27T11:32:18.025Z,98722.66
2022-11-27T11:34:55.011Z,98721.16
2022-11-27T11:37:31.763Z,98716.25
2022-11-27T11:40:11.958Z,98701.16
2022-11-27T11:42:57.511Z,98701.16
2022-11-27T11:45:31.305Z,98689.94
2022-11-27T11:48:06.598Z,98684.97
2022-11-27T11:50:44.781Z,98670.66
2022-11-27T11:53:21.764Z,98671.84
2022-11-27T11:56:07.120Z,98669.25
2022-11-27T11:58:58.022Z,98663.72
2022-11-27T12:02:12.106Z,98664.53
2022-11-27T12:05:10.986Z,98656.75
2022-11-27T12:08:00.888Z,98653.31
2022-11-27T12:10:55.318Z,98648.94
2022-11-27T12:13:44.020Z,98653.97
2022-11-27T12:16:26.360Z,98642.97
2022-11-27T12:19:23.333Z,98638.25
2022-11-27T12:22:07.738Z,98637.78
2022-11-27T12:24:55.133Z,98642.97
2022-11-27T12:27:51.781Z,98637.78
2022-11-27T12:30:24.403Z,98640.38
2022-11-27T12:33:31.650Z,98621.69
2022-11-27T12:36:16.043Z,98624.94
2022-11-27T12:39:14.072Z,98622.66
2022-11-27T12:42:21.634Z,98618.91
2022-11-27T12:45:01.594Z,98610.13
2022-11-27T12:47:40.390Z,98614.22
2022-11-27T12:50:19.073Z,98610.97
2022-11-27T12:52:55.959Z,98599.06
2022-11-27T12:55:32.402Z,98598.91
2022-11-27T12:58:07.478Z,98598.75
2022-11-27T13:00:42.799Z,98593.56
2022-11-27T13:03:22.939Z,98587.38
2022-11-27T13:05:57.966Z,98580.34
2022-11-27T13:08:37.455Z,98567.19
2022-11-27T13:11:13.773Z,98555.63
2022-11-27T13:13:49.241Z,98540.84
2022-11-27T13:16:28.334Z,98537.25
2022-11-27T13:19:12.430Z,98526.66
2022-11-27T13:21:43.150Z,98519.34
2022-11-27T13:24:15.255Z,98510.88
2022-11-27T13:26:53.422Z,98497.22
2022-11-27T13:29:30.971Z,98491.31
2022-11-27T13:32:05.945Z,98490.81
2022-11-27T13:34:47.334Z,98495.38
2022-11-27T13:37:33.292Z,98484.47
2022-11-27T13:40:07.514Z,98478.63
2022-11-27T13:42:43.699Z,98478.28
2022-11-27T13:45:26.320Z,98475.66
2022-11-27T13:47:59.271Z,98475.34
2022-11-27T13:50:31.600Z,98470.66
2022-11-27T13:53:05.260Z,98466.25
2022-11-27T13:55:37.747Z,98464.31
2022-11-27T13:58:08.690Z,98461.53
2022-11-27T14:00:39.846Z,98458.78
2022-11-27T14:03:24.851Z,98456.00
2022-11-27T14:05:54.806Z,98449.16
2022-11-27T14:08:27.858Z,98448.06
2022-11-27T14:11:02.544Z,98457.31
2022-11-27T14:13:43.790Z,98448.56
2022-11-27T14:16:27.809Z,98446.91
2022-11-27T14:19:02.761Z,98446.09
2022-11-27T14:21:44.148Z,98443.50
2022-11-27T14:24:35.922Z,98444.78
2022-11-27T14:27:17.945Z,98433.41
2022-11-27T14:29:47.615Z,98437.97
2022-11-27T14:32:20.261Z,98442.50
2022-11-27T14:34:50.698Z,98452.28
2022-11-27T14:37:26.636Z,98447.06
2022-11-27T14:39:56.442Z,98453.91
2022-11-27T14:42:29.301Z,98451.31
2022-11-27T14:45:08.221Z,98441.19
2022-11-27T14:47:40.879Z,98438.91
2022-11-27T14:50:15.384Z,98443.28
2022-11-27T14:52:46.478Z,98443.78
2022-11-27T14:55:18.111Z,98441.34
2022-11-27T14:57:50.406Z,98437.91
2022-11-27T15:00:24.378Z,98427.50
2022-11-27T15:02:54.173Z,98418.09
2022-11-27T15:05:28.473Z,98436.59
2022-11-27T15:08:03.406Z,98442.31
2022-11-27T15:10:38.340Z,98450.25
2022-11-27T15:13:20.827Z,98446.84
2022-11-27T15:16:02.166Z,98435.59
2022-11-27T15:18:36.495Z,98440.53
2022-11-27T15:21:16.541Z,98445.72
2022-11-27T15:23:49.717Z,98428.00
2022-11-27T15:26:34.850Z,98436.59
2022-11-27T15:29:05.082Z,98413.84
2022-11-27T15:31:37.779Z,98420.50
2022-11-27T15:34:22.660Z,98409.13
2022-11-27T15:36:59.862Z,98403.13
2022-11-27T15:39:38.152Z,98410.91
2022-11-27T15:42:11.857Z,98399.69
2022-11-27T15:44:40.920Z,98401.47
2022-11-27T15:47:28.353Z,98399.19
2022-11-27T15:49:58.659Z,98385.38
2022-11-27T15:52:29.833Z,98386.34
2022-11-27T15:54:58.581Z,98379.34
2022-11-27T15:57:27.766Z,98376.75
2022-11-27T15:59:57.952Z,98370.88
2022-11-27T16:02:30.367Z,98370.06
2022-11-27T16:05:00.082Z,98373.50
2022-11-27T16:07:31.468Z,98363.09
2022-11-27T16:10:00.639Z,98360.34
2022-11-27T16:12:29.711Z,98366.00
2022-11-27T16:15:00.126Z,98366.00
2022-11-27T16:17:28.704Z,98362.25
2022-11-27T16:19:58.010Z,98362.44
2022-11-27T16:22:27.993Z,98358.19
2022-11-27T16:25:00.972Z,98355.28
2022-11-27T16:27:31.317Z,98350.06
2022-11-27T16:30:00.503Z,98347.13
2022-11-27T16:32:29.711Z,98330.38
2022-11-27T16:34:59.879Z,98335.56
2022-11-27T16:37:28.958Z,98329.22
2022-11-27T16:39:59.076Z,98324.19
2022-11-27T16:42:28.219Z,98340.97
2022-11-27T16:44:56.823Z,98345.50
2022-11-27T16:47:32.131Z,98326.94
2022-11-27T16:50:03.802Z,98336.25
2022-11-27T16:52:33.554Z,98324.03
2022-11-27T16:55:04.141Z,98321.75
2022-11-27T16:57:33.905Z,98310.03
2022-11-27T17:00:03.318Z,98309.88
2022-11-27T17:02:35.193Z,98311.66
2022-11-27T17:05:05.586Z,98303.22
2022-11-27T17:07:35.023Z,98307.59
2022-11-27T17:10:06.095Z,98295.41
2022-11-27T17:12:36.050Z,98282.06
2022-11-27T17:15:05.820Z,98276.06
2022-11-27T17:17:39.878Z,98273.13
2022-11-27T17:20:11.671Z,98261.75
2022-11-27T17:22:40.188Z,98262.56
2022-11-27T17:25:12.593Z,98252.31
2022-11-27T17:27:42.661Z,98247.09
2022-11-27T17:30:14.636Z,98241.88
2022-11-27T17:32:44.875Z,98226.94
2022-11-27T17:35:15.534Z,98228.88
2022-11-27T17:37:45.497Z,98213.44
2022-11-27T17:40:18.684Z,98197.84
2022-11-27T17:42:48.616Z,98203.03
2022-11-27T17:45:18.891Z,98214.75
2022-11-27T17:47:48.585Z,98216.88
2022-11-27T17:50:17.815Z,98225.50
2022-11-27T17:52:47.942Z,98228.56
2022-11-27T17:55:20.192Z,98220.13
2022-11-27T17:57:49.388Z,98216.38
2022-11-27T18:00:20.479Z,98215.41
2022-11-27T18:02:49.458Z,98217.00
2022-11-27T18:05:18.823Z,98215.09
2022-11-27T18:07:47.473Z,98203.72
2022-11-27T18:10:19.933Z,98205.16
2022-11-27T18:12:49.254Z,98183.38
2022-11-27T18:15:18.566Z,98186.94
2022-11-27T18:17:47.906Z,98179.97
2022-11-27T18:20:17.487Z,98180.78
2022-11-27T18:22:47.106Z,98183.69
2022-11-27T18:25:18.171Z,98188.88
2022-11-27T18:27:48.158Z,98180.44
2022-11-27T18:30:17.746Z,98176.38
2022-11-27T18:32:47.308Z,98180.44
2022-11-27T18:35:17.230Z,98177.50
2022-11-27T18:37:46.495Z,98182.56
2022-11-27T18:40:17.109Z,98171.19
2022-11-27T18:42:47.524Z,98172.31
2022-11-27T18:45:31.578Z,98170.69
2022-11-27T18:48:01.544Z,98170.53
2022-11-27T18:50:30.863Z,98166.13
2022-11-27T18:53:00.734Z,98155.25
2022-11-27T18:55:33.184Z,98159.78
2022-11-27T18:58:04.736Z,98164.34
2022-11-27T19:00:34.253Z,98152.97
2022-11-27T19:03:03.356Z,98160.13
2022-11-27T19:05:36.365Z,98161.91
2022-11-27T19:08:09.056Z,98168.91
2022-11-27T19:10:38.824Z,98161.44
2022-11-27T19:13:08.971Z,98158.50
2022-11-27T19:15:41.374Z,98157.06
2022-11-27T19:18:10.045Z,98154.59
2022-11-27T19:20:40.392Z,98148.44
2022-11-27T19:23:10.487Z,98138.84
2022-11-27T19:25:40.101Z,98138.03
2022-11-27T19:28:12.690Z,98137.38
2022-11-27T19:30:44.502Z,98138.03
2022-11-27T19:33:14.194Z,98135.91
2022-11-27T19:35:43.736Z,98128.28
2022-11-27T19:38:12.831Z,98116.75
2022-11-27T19:40:41.758Z,98117.56
2022-11-27T19:43:12.275Z,98121.13
2022-11-27T19:45:42.138Z,98117.56
2022-11-27T19:48:10.666Z,98120.31
2022-11-27T19:50:39.559Z,98128.59
2022-11-27T19:53:10.203Z,98134.13
2022-11-27T19:55:38.706Z,98125.34
2022-11-27T19:58:07.158Z,98114.97
2022-11-27T20:00:37.774Z,98104.56
2022-11-27T20:03:07.314Z,98115.44
2022-11-27T20:05:37.398Z,98119.53
2022-11-27T20:08:08.732Z,98114.94
2022-11-27T20:10:38.666Z,98115.63
2022-11-27T20:13:08.751Z,98108.44
2022-11-27T20:15:40.431Z,98100.50
2022-11-27T20:18:10.952Z,98084.09
2022-11-27T20:20:39.974Z,98084.91
2022-11-27T20:23:09.562Z,98075.63
2022-11-27T20:25:40.939Z,98081.16
2022-11-27T20:28:10.610Z,98079.56
2022-11-27T20:30:44.645Z,98074.19
2022-11-27T20:33:17.541Z,98079.69
2022-11-27T20:35:47.287Z,98083.44
2022-11-27T20:38:16.785Z,98076.13
2022-11-27T20:40:45.947Z,98082.94
2022-11-27T20:43:15.175Z,98069.13
2022-11-27T20:45:46.085Z,98074.34
2022-11-27T20:48:15.628Z,98070.78
2022-11-27T20:50:50.988Z,98055.19
2022-11-27T20:53:19.958Z,98051.63
2022-11-27T20:55:49.285Z,98053.22
2022-11-27T20:58:17.777Z,98043.81
2022-11-27T21:00:48.768Z,98053.53
2022-11-27T21:03:18.587Z,98055.19
2022-11-27T21:05:48.252Z,98044.44
2022-11-27T21:08:18.592Z,98054.22
2022-11-27T21:10:47.754Z,98063.31
2022-11-27T21:13:17.242Z,98063.47
2022-11-27T21:15:51.498Z,98063.63
2022-11-27T21:18:20.560Z,98054.22
2022-11-27T21:20:50.216Z,98051.78
2022-11-27T21:23:20.819Z,98029.84
2022-11-27T21:25:51.505Z,98022.38
2022-11-27T21:28:21.187Z,98039.59
2022-11-27T21:30:51.547Z,98040.56
2022-11-27T21:33:20.643Z,98032.78
2022-11-27T21:35:49.065Z,98028.41
2022-11-27T21:38:18.507Z,98031.16
2022-11-27T21:40:47.935Z,98024.34
2022-11-27T21:43:17.184Z,98031.81
2022-11-27T21:45:47.207Z,98018.81
2022-11-27T21:48:18.439Z,98017.34
2022-11-27T21:50:48.174Z,98017.50
2022-11-27T21:53:17.360Z,98006.47
2022-11-27T21:55:48.085Z,98010.38
2022-11-27T21:58:16.889Z,98019.13
2022-11-27T22:00:46.869Z,98018.31
2022-11-27T22:03:17.321Z,98013.31
2022-11-27T22:05:47.505Z,98010.69
2022-11-27T22:08:16.990Z,98018.31
2022-11-27T22:10:46.310Z,98003.53
2022-11-27T22:13:16.352Z,97996.75
2022-11-27T22:15:45.392Z,97991.84
2022-11-27T22:18:16.465Z,97981.47
2022-11-27T22:20:45.855Z,97988.94
2022-11-27T22:23:14.847Z,97992.97
2022-11-27T22:25:43.829Z,97987.00
2022-11-27T22:28:13.109Z,97989.28
2022-11-27T22:30:42.647Z,97993.31
2022-11-27T22:33:11.579Z,97983.91
2022-11-27T22:35:43.065Z,97976.44
2022-11-27T22:38:12.439Z,97979.53
2022-11-27T22:40:43.679Z,97970.44
2022-11-27T22:43:12.428Z,97971.56
2022-11-27T22:45:47.865Z,97975.00
2022-11-27T22:48:18.038Z,97978.56
2022-11-27T22:50:56.770Z,97975.78
2022-11-27T22:53:26.887Z,97976.09
2022-11-27T22:55:56.158Z,97970.41
2022-11-27T22:58:25.707Z,97960.03
2022-11-27T23:00:59.730Z,97959.06
2022-11-27T23:03:29.283Z,97957.13
2022-11-27T23:05:59.886Z,97950.13
2022-11-27T23:08:29.376Z,97939.13
2022-11-27T23:10:58.935Z,97945.13
2022-11-27T23:13:28.511Z,97953.06
2022-11-27T23:15:57.656Z,97948.69
2022-11-27T23:18:27.191Z,97952.91
2022-11-27T23:20:58.115Z,97945.44
2022-11-27T23:23:27.806Z,97937.50
2022-11-27T23:25:57.337Z,97949.50
2022-11-27T23:28:27.025Z,97944.31
2022-11-27T23:31:22.425Z,97943.66
2022-11-27T23:33:45.922Z,97955.16
2022-11-27T23:36:16.782Z,97946.56
2022-11-27T23:38:45.959Z,97948.06
2022-11-27T23:41:19.326Z,97946.41
2022-11-27T23:43:49.983Z,97950.66
2022-11-27T23:46:22.528Z,97946.56
2022-11-27T23:48:51.234Z,97941.56
2022-11-27T23:51:25.874Z,97935.38
2022-11-27T23:53:55.626Z,97948.34
2022-11-27T23:56:28.142Z,97955.66
2022-11-27T23:58:59.625Z,97948.84
